Sipes Mill, Pennsylvania
Current Conditions -  °F | °C
As of 8:53 PM on Saturday 22 Nov 2014 (Local Time) from KHGR Reporting Station
Broken Clouds Broken Clouds  
Wind Chill: 40°   Ceiling: 11000
Heat Index: 40°   Visibility: 10mi
Dew Point: 17°   Wind: 0mph
Humidity: 40%   Direction: NA
Pressure: 30.2"   Gusts: NA
Location:  39.8811°N, 78.1402°W
Report Text: KHGR 230153Z 00000KT 10SM BKN110 04/M08 A3020 RMK AO2 SLP243 T00441083
Loading
Personal Weather Stations






























Interactive Weather Map New forecast layout! Learn more

10-Day Weather Forecast

Advertisements
Track Severe Weather on mobile